Time,TemperatureF,DewpointF,PressureIn,WindDirection,WindDirectionDegrees,WindSpeedMPH,WindSpeedGustMPH,Humidity,HourlyPrecipIn,Conditions,Clouds,dailyrainin,SoftwareType,DateUTC
2013-05-09 00:05:00,66.3,60.6,30.02,WSW,250,0.0,0.0,82,0.00,,,0.00,Wunderground v.1.15,2013-05-09 04:05:00,
2013-05-09 00:15:00,66.1,60.4,30.02,WSW,244,0.0,0.0,82,0.00,,,0.00,Wunderground v.1.15,2013-05-09 04:15:00,
2013-05-09 00:25:00,65.9,60.6,30.01,WSW,243,0.0,0.0,83,0.00,,,0.00,Wunderground v.1.15,2013-05-09 04:25:00,
2013-05-09 00:30:00,65.9,60.6,30.01,WSW,248,0.0,0.0,83,0.00,,,0.00,Wunderground v.1.15,2013-05-09 04:30:00,
2013-05-09 00:35:00,65.7,60.4,30.01,WSW,245,0.0,0.0,83,0.00,,,0.00,Wunderground v.1.15,2013-05-09 04:35:00,
2013-05-09 00:45:00,65.6,60.6,30.01,WSW,249,0.0,0.0,84,0.00,,,0.00,Wunderground v.1.15,2013-05-09 04:45:00,
2013-05-09 00:55:00,65.6,60.6,30.01,SW,235,0.0,0.0,84,0.00,,,0.00,Wunderground v.1.15,2013-05-09 04:55:00,
2013-05-09 01:05:00,65.8,60.8,30.01,WSW,244,0.0,0.0,84,0.00,,,0.00,Wunderground v.1.15,2013-05-09 05:05:00,
2013-05-09 01:10:00,65.8,60.8,30.01,WSW,256,0.0,0.0,84,0.00,,,0.00,Wunderground v.1.15,2013-05-09 05:10:00,
2013-05-09 01:15:00,65.8,60.8,30.01,WSW,246,0.0,0.0,84,0.00,,,0.00,Wunderground v.1.15,2013-05-09 05:15:00,
2013-05-09 01:25:00,65.8,60.8,30.01,WSW,250,0.0,0.0,84,0.00,,,0.00,Wunderground v.1.15,2013-05-09 05:25:00,
2013-05-09 01:35:00,65.6,61.0,30.00,WSW,243,0.0,0.0,85,0.00,,,0.00,Wunderground v.1.15,2013-05-09 05:35:00,
2013-05-09 01:40:00,65.5,60.9,30.00,WSW,248,0.0,0.0,85,0.00,,,0.00,Wunderground v.1.15,2013-05-09 05:40:00,
2013-05-09 01:50:00,65.3,60.7,30.00,West,259,0.0,0.0,85,0.00,,,0.00,Wunderground v.1.15,2013-05-09 05:50:00,
2013-05-09 01:55:00,65.3,61.0,30.00,West,263,0.0,0.0,86,0.00,,,0.00,Wunderground v.1.15,2013-05-09 05:55:00,
2013-05-09 02:05:00,65.1,60.8,29.99,West,273,0.0,0.0,86,0.00,,,0.00,Wunderground v.1.15,2013-05-09 06:05:00,
2013-05-09 02:15:00,65.0,60.7,29.99,WSW,247,0.0,0.0,86,0.00,,,0.00,Wunderground v.1.15,2013-05-09 06:15:00,
2013-05-09 02:25:00,65.0,60.7,29.99,WSW,252,0.0,0.0,86,0.00,,,0.00,Wunderground v.1.15,2013-05-09 06:25:00,
2013-05-09 02:35:00,65.0,61.0,29.99,West,275,0.0,0.0,87,0.00,,,0.00,Wunderground v.1.15,2013-05-09 06:35:00,
2013-05-09 02:40:00,64.9,60.9,29.99,WSW,253,0.0,0.0,87,0.00,,,0.00,Wunderground v.1.15,2013-05-09 06:40:00,
2013-05-09 02:50:00,64.7,60.7,29.99,West,266,0.0,0.0,87,0.00,,,0.00,Wunderground v.1.15,2013-05-09 06:50:00,
2013-05-09 03:00:00,64.5,60.5,29.99,West,269,2.0,2.0,87,0.00,,,0.00,Wunderground v.1.15,2013-05-09 07:00:00,
2013-05-09 03:05:00,64.4,60.4,29.99,WSW,252,1.0,2.0,87,0.00,,,0.00,Wunderground v.1.15,2013-05-09 07:05:00,
2013-05-09 03:15:00,64.3,60.3,29.99,West,274,0.0,0.0,87,0.00,,,0.00,Wunderground v.1.15,2013-05-09 07:15:00,
2013-05-09 03:20:00,64.2,60.2,29.99,WSW,255,0.0,0.0,87,0.00,,,0.00,Wunderground v.1.15,2013-05-09 07:20:00,
2013-05-09 03:30:00,64.0,60.4,29.98,West,261,0.0,0.0,88,0.00,,,0.00,Wunderground v.1.15,2013-05-09 07:30:00,
2013-05-09 03:40:00,63.9,60.3,29.98,West,277,0.0,0.0,88,0.00,,,0.00,Wunderground v.1.15,2013-05-09 07:40:00,
2013-05-09 03:50:00,63.8,60.2,29.98,WSW,255,0.0,0.0,88,0.00,,,0.00,Wunderground v.1.15,2013-05-09 07:50:00,
2013-05-09 03:55:00,63.8,60.2,29.98,West,273,0.0,0.0,88,0.00,,,0.00,Wunderground v.1.15,2013-05-09 07:55:00,
2013-05-09 04:05:00,63.8,59.9,29.98,West,266,3.0,7.0,87,0.00,,,0.00,Wunderground v.1.15,2013-05-09 08:05:00,
2013-05-09 04:15:00,63.9,60.0,29.98,West,263,5.0,5.0,87,0.00,,,0.00,Wunderground v.1.15,2013-05-09 08:15:00,
2013-05-09 04:25:00,63.9,59.6,29.98,WSW,256,2.0,5.0,86,0.00,,,0.00,Wunderground v.1.15,2013-05-09 08:25:00,
2013-05-09 04:30:00,63.9,59.6,29.98,West,264,0.0,0.0,86,0.00,,,0.00,Wunderground v.1.15,2013-05-09 08:30:00,
2013-05-09 04:40:00,63.9,59.6,29.98,West,259,2.0,5.0,86,0.00,,,0.00,Wunderground v.1.15,2013-05-09 08:40:00,
2013-05-09 04:50:00,63.8,59.5,29.99,West,273,2.0,2.0,86,0.00,,,0.00,Wunderground v.1.15,2013-05-09 08:50:00,
2013-05-09 05:00:00,63.8,59.5,29.99,West,271,1.0,1.0,86,0.00,,,0.00,Wunderground v.1.15,2013-05-09 09:00:00,
2013-05-09 05:10:00,63.7,59.4,29.99,WNW,282,2.0,4.0,86,0.00,,,0.00,Wunderground v.1.15,2013-05-09 09:10:00,
2013-05-09 05:20:00,63.6,59.3,29.99,West,281,4.0,4.0,86,0.00,,,0.00,Wunderground v.1.15,2013-05-09 09:20:00,
2013-05-09 05:30:00,63.6,59.3,29.99,West,279,4.0,4.0,86,0.00,,,0.00,Wunderground v.1.15,2013-05-09 09:30:00,
2013-05-09 05:40:00,63.5,59.2,30.00,West,269,4.0,6.0,86,0.00,,,0.00,Wunderground v.1.15,2013-05-09 09:40:00,
2013-05-09 05:45:00,63.4,59.1,30.00,WSW,258,3.0,6.0,86,0.00,,,0.00,Wunderground v.1.15,2013-05-09 09:45:00,
2013-05-09 05:55:00,63.3,59.0,30.00,West,267,0.0,1.0,86,0.00,,,0.00,Wunderground v.1.15,2013-05-09 09:55:00,
2013-05-09 06:05:00,63.1,59.2,30.00,West,271,0.0,0.0,87,0.00,,,0.00,Wunderground v.1.15,2013-05-09 10:05:00,
2013-05-09 06:10:00,63.1,59.2,30.00,West,269,0.0,0.0,87,0.00,,,0.00,Wunderground v.1.15,2013-05-09 10:10:00,
2013-05-09 06:20:00,63.0,59.1,30.00,West,259,0.0,0.0,87,0.00,,,0.00,Wunderground v.1.15,2013-05-09 10:20:00,
2013-05-09 06:30:00,62.9,59.0,30.01,West,270,0.0,0.0,87,0.00,,,0.00,Wunderground v.1.15,2013-05-09 10:30:00,
2013-05-09 06:35:00,62.8,58.9,30.01,West,265,0.0,0.0,87,0.00,,,0.00,Wunderground v.1.15,2013-05-09 10:35:00,
2013-05-09 06:45:00,62.7,58.8,30.01,WSW,250,0.0,0.0,87,0.00,,,0.00,Wunderground v.1.15,2013-05-09 10:45:00,
2013-05-09 06:55:00,62.6,59.0,30.02,West,263,0.0,0.0,88,0.00,,,0.00,Wunderground v.1.15,2013-05-09 10:55:00,
2013-05-09 07:05:00,62.7,59.1,30.02,WSW,238,1.0,1.0,88,0.00,,,0.00,Wunderground v.1.15,2013-05-09 11:05:00,
2013-05-09 07:15:00,62.9,59.3,30.03,West,269,0.0,1.0,88,0.00,,,0.00,Wunderground v.1.15,2013-05-09 11:15:00,
2013-05-09 07:25:00,63.2,59.3,30.03,West,261,5.0,6.0,87,0.00,,,0.00,Wunderground v.1.15,2013-05-09 11:25:00,
2013-05-09 07:35:00,63.6,59.3,30.03,WNW,284,5.0,6.0,86,0.00,,,0.00,Wunderground v.1.15,2013-05-09 11:35:00,
2013-05-09 07:45:00,64.1,59.5,30.03,WSW,255,6.0,8.0,85,0.00,,,0.00,Wunderground v.1.15,2013-05-09 11:45:00,
2013-05-09 07:50:00,64.3,59.4,30.03,WNW,283,6.0,6.0,84,0.00,,,0.00,Wunderground v.1.15,2013-05-09 11:50:00,
2013-05-09 08:00:00,64.7,59.8,30.03,West,275,5.0,5.0,84,0.00,,,0.00,Wunderground v.1.15,2013-05-09 12:00:00,
2013-05-09 08:10:00,65.1,59.8,30.04,West,268,6.0,8.0,83,0.00,,,0.00,Wunderground v.1.15,2013-05-09 12:10:00,
2013-05-09 08:15:00,65.4,59.8,30.04,WNW,286,6.0,8.0,82,0.00,,,0.00,Wunderground v.1.15,2013-05-09 12:15:00,
2013-05-09 08:25:00,66.0,60.0,30.04,WNW,284,4.0,5.0,81,0.00,,,0.00,Wunderground v.1.15,2013-05-09 12:25:00,
2013-05-09 08:35:00,66.5,60.1,30.05,West,281,5.0,5.0,80,0.00,,,0.00,Wunderground v.1.15,2013-05-09 12:35:00,
2013-05-09 08:45:00,67.0,60.3,30.05,WNW,283,6.0,6.0,79,0.00,,,0.00,Wunderground v.1.15,2013-05-09 12:45:00,
2013-05-09 08:55:00,67.4,60.3,30.05,West,259,6.0,7.0,78,0.00,,,0.00,Wunderground v.1.15,2013-05-09 12:55:00,
2013-05-09 09:00:00,67.7,60.2,30.05,WNW,286,6.0,6.0,77,0.00,,,0.00,Wunderground v.1.15,2013-05-09 13:00:00,
2013-05-09 09:10:00,68.3,60.4,30.05,WNW,294,6.0,6.0,76,0.00,,,0.00,Wunderground v.1.15,2013-05-09 13:10:00,
2013-05-09 09:15:00,68.6,61.1,30.05,West,275,5.0,6.0,77,0.00,,,0.00,Wunderground v.1.15,2013-05-09 13:15:00,
2013-05-09 09:20:00,68.8,60.9,30.05,WNW,298,5.0,5.0,76,0.00,,,0.00,Wunderground v.1.15,2013-05-09 13:20:00,
2013-05-09 09:30:00,69.4,60.8,30.05,NW,311,2.0,4.0,74,0.00,,,0.00,Wunderground v.1.15,2013-05-09 13:30:00,
2013-05-09 09:40:00,69.5,61.2,30.06,NW,325,3.0,3.0,75,0.00,,,0.00,Wunderground v.1.15,2013-05-09 13:40:00,
2013-05-09 09:50:00,70.3,61.2,30.06,WNW,299,1.0,1.0,73,0.00,,,0.00,Wunderground v.1.15,2013-05-09 13:50:00,
2013-05-09 09:55:00,70.3,61.2,30.06,West,281,1.0,1.0,73,0.00,,,0.00,Wunderground v.1.15,2013-05-09 13:55:00,
2013-05-09 10:05:00,70.7,62.0,30.06,WNW,294,0.0,3.0,74,0.00,,,0.00,Wunderground v.1.15,2013-05-09 14:05:00,
2013-05-09 10:10:00,71.4,61.5,30.06,NNE,13,0.0,0.0,71,0.00,,,0.00,Wunderground v.1.15,2013-05-09 14:10:00,
2013-05-09 10:20:00,71.9,61.6,30.06,WNW,302,1.0,2.0,70,0.00,,,0.00,Wunderground v.1.15,2013-05-09 14:20:00,
2013-05-09 10:30:00,72.4,61.7,30.06,NW,304,1.0,5.0,69,0.00,,,0.00,Wunderground v.1.15,2013-05-09 14:30:00,
2013-05-09 10:40:00,72.7,61.5,30.06,WSW,241,0.0,0.0,68,0.00,,,0.00,Wunderground v.1.15,2013-05-09 14:40:00,
2013-05-09 10:45:00,72.9,61.3,30.06,WSW,241,0.0,0.0,67,0.00,,,0.00,Wunderground v.1.15,2013-05-09 14:45:00,
2013-05-09 10:50:00,73.2,61.2,30.06,NNW,329,0.0,2.0,66,0.00,,,0.00,Wunderground v.1.15,2013-05-09 14:50:00,
2013-05-09 11:00:00,73.2,63.2,30.06,SSE,161,2.0,2.0,71,0.00,,,0.00,Wunderground v.1.15,2013-05-09 15:00:00,
2013-05-09 11:10:00,71.1,63.1,30.06,South,173,0.0,0.0,76,0.00,,,0.00,Wunderground v.1.15,2013-05-09 15:10:00,
2013-05-09 11:20:00,71.0,63.1,30.06,South,186,0.0,0.0,76,0.00,,,0.00,Wunderground v.1.15,2013-05-09 15:20:00,
2013-05-09 11:25:00,71.3,63.3,30.06,South,186,0.0,0.0,76,0.00,,,0.00,Wunderground v.1.15,2013-05-09 15:25:00,
2013-05-09 11:35:00,71.6,63.6,30.07,SSW,211,0.0,0.0,76,0.00,,,0.00,Wunderground v.1.15,2013-05-09 15:35:00,
2013-05-09 11:40:00,71.5,63.5,30.07,South,185,0.0,0.0,76,0.00,,,0.00,Wunderground v.1.15,2013-05-09 15:40:00,
2013-05-09 11:50:00,71.4,63.1,30.07,SSE,167,0.0,0.0,75,0.00,,,0.00,Wunderground v.1.15,2013-05-09 15:50:00,
2013-05-09 12:00:00,71.9,64.7,30.07,SSW,192,0.0,0.0,78,0.00,,,0.00,Wunderground v.1.15,2013-05-09 16:00:00,
2013-05-09 12:10:00,72.2,64.2,30.06,South,179,0.0,0.0,76,0.00,,,0.00,Wunderground v.1.15,2013-05-09 16:10:00,
2013-05-09 12:20:00,72.3,64.3,30.06,SSW,205,0.0,0.0,76,0.00,,,0.00,Wunderground v.1.15,2013-05-09 16:20:00,
2013-05-09 12:30:00,72.3,64.7,30.06,SSW,193,1.0,1.0,77,0.00,,,0.00,Wunderground v.1.15,2013-05-09 16:30:00,
2013-05-09 12:35:00,72.4,64.0,30.06,South,184,1.0,1.0,75,0.00,,,0.00,Wunderground v.1.15,2013-05-09 16:35:00,
2013-05-09 12:40:00,72.6,63.8,30.06,South,179,0.0,0.0,74,0.00,,,0.00,Wunderground v.1.15,2013-05-09 16:40:00,
2013-05-09 12:50:00,73.2,64.8,30.06,SSW,201,1.0,7.0,75,0.00,,,0.00,Wunderground v.1.15,2013-05-09 16:50:00,
2013-05-09 13:00:00,73.4,64.6,30.06,SSW,194,3.0,3.0,74,0.00,,,0.00,Wunderground v.1.15,2013-05-09 17:00:00,
2013-05-09 13:10:00,73.0,63.8,30.06,South,184,0.0,0.0,73,0.00,,,0.00,Wunderground v.1.15,2013-05-09 17:10:00,
2013-05-09 13:20:00,73.0,66.1,30.06,South,177,0.0,0.0,79,0.00,,,0.00,Wunderground v.1.15,2013-05-09 17:20:00,
2013-05-09 13:25:00,73.1,65.8,30.06,SW,218,0.0,5.0,78,0.00,,,0.00,Wunderground v.1.15,2013-05-09 17:25:00,
2013-05-09 13:35:00,72.9,65.6,30.06,South,188,2.0,2.0,78,0.00,,,0.00,Wunderground v.1.15,2013-05-09 17:35:00,
2013-05-09 13:40:00,72.5,65.6,30.06,South,172,0.0,0.0,79,0.00,,,0.00,Wunderground v.1.15,2013-05-09 17:40:00,
2013-05-09 13:50:00,71.7,66.3,30.05,South,172,1.0,1.0,83,0.00,,,0.00,Wunderground v.1.15,2013-05-09 17:50:00,
2013-05-09 14:00:00,71.8,67.0,30.05,South,175,4.0,5.0,85,0.00,,,0.00,Wunderground v.1.15,2013-05-09 18:00:00,
2013-05-09 14:10:00,72.2,67.1,30.04,South,171,1.0,1.0,84,0.00,,,0.00,Wunderground v.1.15,2013-05-09 18:10:00,
2013-05-09 14:20:00,73.4,66.5,30.04,SSW,209,0.0,0.0,79,0.00,,,0.00,Wunderground v.1.15,2013-05-09 18:20:00,
2013-05-09 14:30:00,73.6,67.0,30.04,South,191,0.0,0.0,80,0.00,,,0.00,Wunderground v.1.15,2013-05-09 18:30:00,
2013-05-09 14:40:00,73.8,66.9,30.04,SSW,211,0.0,6.0,79,0.00,,,0.00,Wunderground v.1.15,2013-05-09 18:40:00,
2013-05-09 14:50:00,73.6,66.7,30.03,SW,235,3.0,3.0,79,0.00,,,0.00,Wunderground v.1.15,2013-05-09 18:50:00,
2013-05-09 15:00:00,73.3,66.8,30.04,SSW,213,0.0,0.0,80,0.00,,,0.00,Wunderground v.1.15,2013-05-09 19:00:00,
2013-05-09 15:05:00,72.2,66.0,30.03,SSW,201,0.0,0.0,81,0.00,,,0.00,Wunderground v.1.15,2013-05-09 19:05:00,
2013-05-09 15:15:00,71.6,66.5,30.03,SSW,212,0.0,0.0,84,0.00,,,0.00,Wunderground v.1.15,2013-05-09 19:15:00,
2013-05-09 15:25:00,71.7,66.3,30.04,SSW,213,0.0,0.0,83,0.00,,,0.00,Wunderground v.1.15,2013-05-09 19:25:00,
2013-05-09 15:30:00,71.9,65.8,30.03,SW,217,0.0,0.0,81,0.00,,,0.00,Wunderground v.1.15,2013-05-09 19:30:00,
2013-05-09 15:40:00,72.0,66.2,30.03,WSW,238,0.0,0.0,82,0.00,,,0.00,Wunderground v.1.15,2013-05-09 19:40:00,
2013-05-09 15:50:00,72.4,65.9,30.03,SSW,213,0.0,0.0,80,0.00,,,0.00,Wunderground v.1.15,2013-05-09 19:50:00,
2013-05-09 16:00:00,72.9,66.0,30.03,SW,217,0.0,0.0,79,0.00,,,0.00,Wunderground v.1.15,2013-05-09 20:00:00,
2013-05-09 16:05:00,73.2,66.3,30.02,SSW,207,0.0,0.0,79,0.00,,,0.00,Wunderground v.1.15,2013-05-09 20:05:00,
2013-05-09 16:15:00,73.0,66.8,30.02,SW,221,0.0,0.0,81,0.00,,,0.00,Wunderground v.1.15,2013-05-09 20:15:00,
2013-05-09 16:25:00,72.7,65.8,30.02,SW,217,0.0,0.0,79,0.00,,,0.00,Wunderground v.1.15,2013-05-09 20:25:00,
2013-05-09 16:35:00,72.1,65.9,30.02,SSW,208,0.0,0.0,81,0.00,,,0.00,Wunderground v.1.15,2013-05-09 20:35:00,
2013-05-09 16:45:00,71.8,66.0,30.02,SSW,208,0.0,0.0,82,0.00,,,0.00,Wunderground v.1.15,2013-05-09 20:45:00,
2013-05-09 16:55:00,72.1,66.3,30.02,SW,214,0.0,0.0,82,0.00,,,0.00,Wunderground v.1.15,2013-05-09 20:55:00,
2013-05-09 17:05:00,71.8,66.0,30.02,SW,218,0.0,0.0,82,0.00,,,0.00,Wunderground v.1.15,2013-05-09 21:05:00,
2013-05-09 17:10:00,71.8,66.0,30.02,SSW,198,0.0,0.0,82,0.00,,,0.00,Wunderground v.1.15,2013-05-09 21:10:00,
2013-05-09 17:20:00,72.4,66.2,30.02,SW,228,0.0,0.0,81,0.00,,,0.00,Wunderground v.1.15,2013-05-09 21:20:00,
2013-05-09 17:25:00,72.1,65.9,30.02,SSW,213,0.0,0.0,81,0.00,,,0.00,Wunderground v.1.15,2013-05-09 21:25:00,
2013-05-09 17:35:00,72.6,66.1,30.02,SSW,200,0.0,0.0,80,0.00,,,0.00,Wunderground v.1.15,2013-05-09 21:35:00,
2013-05-09 17:45:00,72.0,66.2,30.02,SW,227,0.0,0.0,82,0.00,,,0.00,Wunderground v.1.15,2013-05-09 21:45:00,
2013-05-09 17:55:00,72.3,66.1,30.02,SW,232,0.0,0.0,81,0.00,,,0.00,Wunderground v.1.15,2013-05-09 21:55:00,
2013-05-09 18:05:00,72.0,66.2,30.02,SW,215,0.0,0.0,82,0.00,,,0.00,Wunderground v.1.15,2013-05-09 22:05:00,
2013-05-09 18:15:00,71.6,66.2,30.02,SW,234,0.0,0.0,83,0.00,,,0.00,Wunderground v.1.15,2013-05-09 22:15:00,
2013-05-09 18:25:00,71.5,66.1,30.02,SW,217,0.0,0.0,83,0.00,,,0.00,Wunderground v.1.15,2013-05-09 22:25:00,
2013-05-09 18:35:00,71.6,66.2,30.02,SSW,206,0.0,0.0,83,0.00,,,0.00,Wunderground v.1.15,2013-05-09 22:35:00,
2013-05-09 18:40:00,71.4,66.0,30.01,SSW,211,0.0,0.0,83,0.00,,,0.00,Wunderground v.1.15,2013-05-09 22:40:00,
2013-05-09 18:50:00,71.5,66.4,30.01,SW,217,0.0,0.0,84,0.00,,,0.00,Wunderground v.1.15,2013-05-09 22:50:00,
2013-05-09 18:55:00,71.7,66.6,30.02,SW,225,0.0,0.0,84,0.00,,,0.00,Wunderground v.1.15,2013-05-09 22:55:00,
2013-05-09 19:00:00,71.9,66.5,30.02,SW,230,0.0,0.0,83,0.00,,,0.00,Wunderground v.1.15,2013-05-09 23:00:00,
2013-05-09 19:10:00,71.6,66.2,30.02,SW,215,0.0,0.0,83,0.00,,,0.00,Wunderground v.1.15,2013-05-09 23:10:00,
2013-05-09 19:20:00,71.6,66.2,30.02,SW,219,0.0,0.0,83,0.00,,,0.00,Wunderground v.1.15,2013-05-09 23:20:00,
2013-05-09 19:25:00,71.6,66.5,30.02,SW,218,0.0,0.0,84,0.00,,,0.00,Wunderground v.1.15,2013-05-09 23:25:00,
2013-05-09 19:35:00,71.7,66.6,30.02,SW,221,0.0,0.0,84,0.00,,,0.00,Wunderground v.1.15,2013-05-09 23:35:00,
2013-05-09 19:45:00,71.6,66.8,30.02,SW,221,0.0,0.0,85,0.00,,,0.00,Wunderground v.1.15,2013-05-09 23:45:00,
2013-05-09 19:55:00,71.2,66.5,30.03,SW,232,0.0,0.0,85,0.00,,,0.00,Wunderground v.1.15,2013-05-09 23:55:00,
2013-05-09 20:05:00,71.1,66.7,30.03,SW,227,0.0,0.0,86,0.00,,,0.00,Wunderground v.1.15,2013-05-10 00:05:00,
2013-05-09 20:10:00,71.3,66.6,30.04,SW,232,0.0,0.0,85,0.00,,,0.00,Wunderground v.1.15,2013-05-10 00:10:00,
2013-05-09 20:20:00,71.5,66.4,30.04,SW,225,0.0,0.0,84,0.00,,,0.00,Wunderground v.1.15,2013-05-10 00:20:00,
2013-05-09 20:30:00,70.8,66.4,30.04,SW,230,0.0,0.0,86,0.00,,,0.00,Wunderground v.1.15,2013-05-10 00:30:00,
2013-05-09 20:40:00,70.4,66.0,30.05,WSW,244,0.0,0.0,86,0.00,,,0.00,Wunderground v.1.15,2013-05-10 00:40:00,
2013-05-09 20:45:00,70.5,66.4,30.05,WSW,244,0.0,0.0,87,0.00,,,0.00,Wunderground v.1.15,2013-05-10 00:45:00,
2013-05-09 20:55:00,70.4,66.3,30.05,SW,227,0.0,0.0,87,0.00,,,0.00,Wunderground v.1.15,2013-05-10 00:55:00,
2013-05-09 21:05:00,70.6,66.5,30.06,SW,231,0.0,0.0,87,0.00,,,0.00,Wunderground v.1.15,2013-05-10 01:05:00,
2013-05-09 21:10:00,70.6,66.5,30.06,SW,228,0.0,0.0,87,0.00,,,0.00,Wunderground v.1.15,2013-05-10 01:10:00,
2013-05-09 21:20:00,70.3,66.2,30.06,WSW,240,0.0,0.0,87,0.00,,,0.00,Wunderground v.1.15,2013-05-10 01:20:00,
2013-05-09 21:30:00,70.0,65.3,30.07,WSW,252,0.0,0.0,85,0.00,,,0.00,Wunderground v.1.15,2013-05-10 01:30:00,
2013-05-09 21:40:00,69.9,64.5,30.07,WSW,240,0.0,0.0,83,0.00,,,0.00,Wunderground v.1.15,2013-05-10 01:40:00,
2013-05-09 21:45:00,70.1,64.7,30.07,WSW,243,0.0,0.0,83,0.00,,,0.00,Wunderground v.1.15,2013-05-10 01:45:00,
2013-05-09 21:55:00,70.3,65.6,30.08,SW,226,0.0,0.0,85,0.00,,,0.00,Wunderground v.1.15,2013-05-10 01:55:00,
2013-05-09 22:05:00,70.0,65.3,30.08,SW,233,0.0,0.0,85,0.00,,,0.00,Wunderground v.1.15,2013-05-10 02:05:00,
2013-05-09 22:15:00,69.9,65.2,30.08,WSW,250,0.0,0.0,85,0.00,,,0.00,Wunderground v.1.15,2013-05-10 02:15:00,
2013-05-09 22:25:00,69.5,64.5,30.08,WSW,248,0.0,0.0,84,0.00,,,0.00,Wunderground v.1.15,2013-05-10 02:25:00,
2013-05-09 22:35:00,69.2,63.5,30.08,WSW,252,0.0,0.0,82,0.00,,,0.00,Wunderground v.1.15,2013-05-10 02:35:00,
2013-05-09 22:45:00,69.2,63.5,30.08,WSW,257,0.0,0.0,82,0.00,,,0.00,Wunderground v.1.15,2013-05-10 02:45:00,
2013-05-09 22:50:00,69.1,63.4,30.08,WSW,248,0.0,0.0,82,0.00,,,0.00,Wunderground v.1.15,2013-05-10 02:50:00,
2013-05-09 23:00:00,69.2,63.5,30.08,West,263,0.0,0.0,82,0.00,,,0.00,Wunderground v.1.15,2013-05-10 03:00:00,
2013-05-09 23:10:00,69.2,63.5,30.07,WSW,248,0.0,0.0,82,0.00,,,0.00,Wunderground v.1.15,2013-05-10 03:10:00,
2013-05-09 23:20:00,69.1,63.4,30.08,WSW,239,0.0,0.0,82,0.00,,,0.00,Wunderground v.1.15,2013-05-10 03:20:00,
2013-05-09 23:25:00,69.3,63.9,30.08,SW,236,0.0,0.0,83,0.00,,,0.00,Wunderground v.1.15,2013-05-10 03:25:00,
2013-05-09 23:30:00,69.3,64.3,30.08,SW,230,0.0,0.0,84,0.00,,,0.00,Wunderground v.1.15,2013-05-10 03:30:00,
2013-05-09 23:40:00,69.0,63.6,30.08,WSW,249,0.0,0.0,83,0.00,,,0.00,Wunderground v.1.15,2013-05-10 03:40:00,
2013-05-09 23:50:00,68.6,62.5,30.08,WSW,247,0.0,0.0,81,0.00,,,0.00,Wunderground v.1.15,2013-05-10 03:50:00,